KSLG/SLG METAR and TAF weather

Enter ICAO airport designator
Station Type Date Time Source
KSLG METAR 2019/12/14 10:56 UTC NOAA

KSLG 141056Z AUTO 32008KT 10SM CLR 03/01 A2983 RMK AO2 SLP102 T00330011 TSNO


Station Type Date Time Source
KSLG Decoded METAR 2019/12/14 10:56 UTC NOAA

Siloam Springs, Smith Field Airport, AR, United States (KSLG) 36-12N 094-29W
Dec 14, 2019 - 05:56 AM EST / 2019.12.14 1056 UTC
Wind: from the NW (320 degrees) at 9 MPH (8 KT):0
Visibility: 10 mile(s):0
Sky conditions: clear
Temperature: 37.9 F (3.3 C)
Dew Point: 34.0 F (1.1 C)
Relative Humidity: 85%
Pressure (altimeter): 29.83 in. Hg (1010 hPa)
ob: KSLG 141056Z AUTO 32008KT 10SM CLR 03/01 A2983 RMK AO2 SLP102 T00330011 TSNO
cycle: 11

Station Type Date Time Source
KSLG TAF UTC NOAA

Error!

Example: see airport list